sensor_id;sensor_type;location;lat;lon;timestamp;pressure;altitude;pressure_sealevel;temperature;humidity
7480;BME280;3781;42.272;22.658;2022-09-09T00:00:19;94814.88;;;15.89;nan
7480;BME280;3781;42.272;22.658;2022-09-09T00:02:54;94814.56;;;16.00;nan
7480;BME280;3781;42.272;22.658;2022-09-09T00:05:29;94828.00;;;16.13;nan
7480;BME280;3781;42.272;22.658;2022-09-09T00:07:59;94813.44;;;15.53;nan
7480;BME280;3781;42.272;22.658;2022-09-09T00:10:31;94829.53;;;15.66;nan
7480;BME280;3781;42.272;22.658;2022-09-09T00:13:06;94817.84;;;15.44;nan
7480;BME280;3781;42.272;22.658;2022-09-09T00:15:40;94833.50;;;15.78;nan
7480;BME280;3781;42.272;22.658;2022-09-09T00:18:16;94810.91;;;15.69;nan
7480;BME280;3781;42.272;22.658;2022-09-09T00:20:49;94813.88;;;15.90;nan
7480;BME280;3781;42.272;22.658;2022-09-09T00:23:24;94815.53;;;15.83;nan
7480;BME280;3781;42.272;22.658;2022-09-09T00:25:59;94695.81;;;14.93;nan
7480;BME280;3781;42.272;22.658;2022-09-09T00:28:28;94741.31;;;15.08;nan
7480;BME280;3781;42.272;22.658;2022-09-09T00:31:11;94678.03;;;14.29;nan
7480;BME280;3781;42.272;22.658;2022-09-09T00:33:39;94796.28;;;14.83;nan
7480;BME280;3781;42.272;22.658;2022-09-09T00:36:12;94810.41;;;15.32;nan
7480;BME280;3781;42.272;22.658;2022-09-09T00:38:43;94813.81;;;15.58;nan
7480;BME280;3781;42.272;22.658;2022-09-09T00:41:17;94816.75;;;15.55;nan
7480;BME280;3781;42.272;22.658;2022-09-09T00:43:55;94818.06;;;15.59;nan
7480;BME280;3781;42.272;22.658;2022-09-09T00:46:45;94793.09;;;15.31;nan
7480;BME280;3781;42.272;22.658;2022-09-09T00:49:24;94804.88;;;15.43;nan
7480;BME280;3781;42.272;22.658;2022-09-09T00:52:03;94790.00;;;15.35;nan
7480;BME280;3781;42.272;22.658;2022-09-09T00:54:40;94821.00;;;15.64;nan
7480;BME280;3781;42.272;22.658;2022-09-09T00:57:23;94801.34;;;15.52;nan
7480;BME280;3781;42.272;22.658;2022-09-09T00:59:58;94828.44;;;15.43;nan
7480;BME280;3781;42.272;22.658;2022-09-09T01:02:36;94834.16;;;15.04;nan
7480;BME280;3781;42.272;22.658;2022-09-09T01:05:10;94816.44;;;14.90;nan
7480;BME280;3781;42.272;22.658;2022-09-09T01:07:40;94809.56;;;14.89;nan
7480;BME280;3781;42.272;22.658;2022-09-09T01:10:17;94792.91;;;14.98;nan
7480;BME280;3781;42.272;22.658;2022-09-09T01:12:52;94722.50;;;14.63;nan
7480;BME280;3781;42.272;22.658;2022-09-09T01:15:26;94778.22;;;14.97;nan
7480;BME280;3781;42.272;22.658;2022-09-09T01:18:00;94814.44;;;15.44;nan
7480;BME280;3781;42.272;22.658;2022-09-09T01:20:32;94775.72;;;15.22;nan
7480;BME280;3781;42.272;22.658;2022-09-09T01:23:33;94816.91;;;15.20;nan
7480;BME280;3781;42.272;22.658;2022-09-09T01:26:18;94767.72;;;14.89;nan
7480;BME280;3781;42.272;22.658;2022-09-09T01:28:48;94815.41;;;15.09;nan
7480;BME280;3781;42.272;22.658;2022-09-09T01:31:20;94783.72;;;14.86;nan
7480;BME280;3781;42.272;22.658;2022-09-09T01:33:48;94787.50;;;14.92;nan
7480;BME280;3781;42.272;22.658;2022-09-09T01:36:19;94821.97;;;14.87;nan
7480;BME280;3781;42.272;22.658;2022-09-09T01:38:48;94799.22;;;14.54;nan
7480;BME280;3781;42.272;22.658;2022-09-09T01:41:16;94760.34;;;14.33;nan
7480;BME280;3781;42.272;22.658;2022-09-09T01:43:43;94745.63;;;14.50;nan
7480;BME280;3781;42.272;22.658;2022-09-09T01:46:11;94758.50;;;14.77;nan
7480;BME280;3781;42.272;22.658;2022-09-09T01:48:39;94816.97;;;15.36;nan
7480;BME280;3781;42.272;22.658;2022-09-09T01:51:07;94799.94;;;15.32;nan
7480;BME280;3781;42.272;22.658;2022-09-09T01:53:36;94815.41;;;15.51;nan
7480;BME280;3781;42.272;22.658;2022-09-09T01:56:12;94821.16;;;15.54;nan
7480;BME280;3781;42.272;22.658;2022-09-09T01:58:52;94792.22;;;15.22;nan
7480;BME280;3781;42.272;22.658;2022-09-09T02:01:28;94788.88;;;15.04;nan
7480;BME280;3781;42.272;22.658;2022-09-09T02:04:03;94815.59;;;14.90;nan
7480;BME280;3781;42.272;22.658;2022-09-09T02:06:36;94836.00;;;15.12;nan
7480;BME280;3781;42.272;22.658;2022-09-09T02:09:05;94762.69;;;14.70;nan
7480;BME280;3781;42.272;22.658;2022-09-09T02:11:34;94824.28;;;14.90;nan
7480;BME280;3781;42.272;22.658;2022-09-09T02:14:07;94765.78;;;14.40;nan
7480;BME280;3781;42.272;22.658;2022-09-09T02:16:39;94813.94;;;14.81;nan
7480;BME280;3781;42.272;22.658;2022-09-09T02:19:10;94764.66;;;14.68;nan
7480;BME280;3781;42.272;22.658;2022-09-09T02:21:40;94792.91;;;14.98;nan
7480;BME280;3781;42.272;22.658;2022-09-09T02:24:08;94808.16;;;15.03;nan
7480;BME280;3781;42.272;22.658;2022-09-09T02:26:38;94785.38;;;14.87;nan
7480;BME280;3781;42.272;22.658;2022-09-09T02:29:11;94710.25;;;14.38;nan
7480;BME280;3781;42.272;22.658;2022-09-09T02:31:41;94765.56;;;14.33;nan
7480;BME280;3781;42.272;22.658;2022-09-09T02:34:09;94806.13;;;14.20;nan
7480;BME280;3781;42.272;22.658;2022-09-09T02:36:39;94820.13;;;14.19;nan
7480;BME280;3781;42.272;22.658;2022-09-09T02:39:09;94765.19;;;13.85;nan
7480;BME280;3781;42.272;22.658;2022-09-09T02:41:38;94797.03;;;13.89;nan
7480;BME280;3781;42.272;22.658;2022-09-09T02:44:11;94802.41;;;14.05;nan
7480;BME280;3781;42.272;22.658;2022-09-09T02:46:56;94820.06;;;14.28;nan
7480;BME280;3781;42.272;22.658;2022-09-09T02:49:31;94810.28;;;14.48;nan
7480;BME280;3781;42.272;22.658;2022-09-09T02:52:06;94795.16;;;14.34;nan
7480;BME280;3781;42.272;22.658;2022-09-09T02:54:34;94772.50;;;14.25;nan
7480;BME280;3781;42.272;22.658;2022-09-09T02:57:04;94801.16;;;14.52;nan
7480;BME280;3781;42.272;22.658;2022-09-09T02:59:34;94795.94;;;14.52;nan
7480;BME280;3781;42.272;22.658;2022-09-09T03:02:01;94804.44;;;14.54;nan
7480;BME280;3781;42.272;22.658;2022-09-09T03:04:28;94817.25;;;14.65;nan
7480;BME280;3781;42.272;22.658;2022-09-09T03:06:55;94813.38;;;14.69;nan
7480;BME280;3781;42.272;22.658;2022-09-09T03:09:22;94783.06;;;14.33;nan
7480;BME280;3781;42.272;22.658;2022-09-09T03:11:49;94809.34;;;14.57;nan
7480;BME280;3781;42.272;22.658;2022-09-09T03:14:16;94816.09;;;14.42;nan
7480;BME280;3781;42.272;22.658;2022-09-09T03:16:47;94809.25;;;14.41;nan
7480;BME280;3781;42.272;22.658;2022-09-09T03:19:14;94780.13;;;14.36;nan
7480;BME280;3781;42.272;22.658;2022-09-09T03:21:41;94744.22;;;14.20;nan
7480;BME280;3781;42.272;22.658;2022-09-09T03:24:08;94777.19;;;14.31;nan
7480;BME280;3781;42.272;22.658;2022-09-09T03:26:35;94808.94;;;14.44;nan
7480;BME280;3781;42.272;22.658;2022-09-09T03:29:03;94768.84;;;14.35;nan
7480;BME280;3781;42.272;22.658;2022-09-09T03:31:31;94775.28;;;14.41;nan
7480;BME280;3781;42.272;22.658;2022-09-09T03:34:00;94787.25;;;14.77;nan
7480;BME280;3781;42.272;22.658;2022-09-09T03:36:27;94778.72;;;14.67;nan
7480;BME280;3781;42.272;22.658;2022-09-09T03:38:54;94812.38;;;14.70;nan
7480;BME280;3781;42.272;22.658;2022-09-09T03:41:21;94807.50;;;14.50;nan
7480;BME280;3781;42.272;22.658;2022-09-09T03:43:49;94803.50;;;14.38;nan
7480;BME280;3781;42.272;22.658;2022-09-09T03:46:16;94808.34;;;14.50;nan
7480;BME280;3781;42.272;22.658;2022-09-09T03:48:43;94815.81;;;14.45;nan
7480;BME280;3781;42.272;22.658;2022-09-09T03:51:11;94808.97;;;14.09;nan
7480;BME280;3781;42.272;22.658;2022-09-09T03:53:38;94818.13;;;13.95;nan
7480;BME280;3781;42.272;22.658;2022-09-09T03:56:05;94763.47;;;13.58;nan
7480;BME280;3781;42.272;22.658;2022-09-09T03:58:33;94821.47;;;14.23;nan
7480;BME280;3781;42.272;22.658;2022-09-09T04:01:02;94822.16;;;14.25;nan
7480;BME280;3781;42.272;22.658;2022-09-09T04:03:29;94834.19;;;14.18;nan
7480;BME280;3781;42.272;22.658;2022-09-09T04:05:58;94812.84;;;14.05;nan
7480;BME280;3781;42.272;22.658;2022-09-09T04:08:27;94790.38;;;13.94;nan
7480;BME280;3781;42.272;22.658;2022-09-09T04:10:54;94789.84;;;13.91;nan
7480;BME280;3781;42.272;22.658;2022-09-09T04:13:24;94796.13;;;13.98;nan
7480;BME280;3781;42.272;22.658;2022-09-09T04:15:51;94811.19;;;14.04;nan
7480;BME280;3781;42.272;22.658;2022-09-09T04:18:19;94818.50;;;14.18;nan
7480;BME280;3781;42.272;22.658;2022-09-09T04:20:46;94826.13;;;14.29;nan
7480;BME280;3781;42.272;22.658;2022-09-09T04:23:14;94819.53;;;14.25;nan
7480;BME280;3781;42.272;22.658;2022-09-09T04:25:45;94774.03;;;14.10;nan
7480;BME280;3781;42.272;22.658;2022-09-09T04:28:12;94826.94;;;14.47;nan
7480;BME280;3781;42.272;22.658;2022-09-09T04:30:39;94832.00;;;14.49;nan
7480;BME280;3781;42.272;22.658;2022-09-09T04:33:06;94819.66;;;14.33;nan
7480;BME280;3781;42.272;22.658;2022-09-09T04:35:33;94840.81;;;14.48;nan
7480;BME280;3781;42.272;22.658;2022-09-09T04:38:00;94821.16;;;14.61;nan
7480;BME280;3781;42.272;22.658;2022-09-09T04:40:28;94823.19;;;14.75;nan
7480;BME280;3781;42.272;22.658;2022-09-09T04:42:57;94831.50;;;14.71;nan
7480;BME280;3781;42.272;22.658;2022-09-09T04:45:24;94834.44;;;14.68;nan
7480;BME280;3781;42.272;22.658;2022-09-09T04:47:51;94824.81;;;14.51;nan
7480;BME280;3781;42.272;22.658;2022-09-09T04:50:18;94807.44;;;14.59;nan
7480;BME280;3781;42.272;22.658;2022-09-09T04:52:45;94832.84;;;15.00;nan
7480;BME280;3781;42.272;22.658;2022-09-09T04:55:12;94828.59;;;15.07;nan
7480;BME280;3781;42.272;22.658;2022-09-09T04:57:39;94830.97;;;15.19;nan
7480;BME280;3781;42.272;22.658;2022-09-09T05:00:08;94801.50;;;15.08;nan
7480;BME280;3781;42.272;22.658;2022-09-09T05:02:37;94813.69;;;15.34;nan
7480;BME280;3781;42.272;22.658;2022-09-09T05:05:04;94834.09;;;15.56;nan
7480;BME280;3781;42.272;22.658;2022-09-09T05:07:32;94840.38;;;15.79;nan
7480;BME280;3781;42.272;22.658;2022-09-09T05:09:58;94825.34;;;15.89;nan
7480;BME280;3781;42.272;22.658;2022-09-09T05:12:25;94818.16;;;16.07;nan
7480;BME280;3781;42.272;22.658;2022-09-09T05:14:52;94832.75;;;16.26;nan
7480;BME280;3781;42.272;22.658;2022-09-09T05:17:20;94834.56;;;16.33;nan
7480;BME280;3781;42.272;22.658;2022-09-09T05:19:47;94832.63;;;16.59;nan
7480;BME280;3781;42.272;22.658;2022-09-09T05:22:18;94772.16;;;16.61;nan
7480;BME280;3781;42.272;22.658;2022-09-09T05:24:46;94814.72;;;16.95;nan
7480;BME280;3781;42.272;22.658;2022-09-09T05:27:16;94818.44;;;17.17;nan
7480;BME280;3781;42.272;22.658;2022-09-09T05:29:43;94823.00;;;17.31;nan
7480;BME280;3781;42.272;22.658;2022-09-09T05:32:10;94805.84;;;17.51;nan
7480;BME280;3781;42.272;22.658;2022-09-09T05:34:38;94796.00;;;17.53;nan
7480;BME280;3781;42.272;22.658;2022-09-09T05:37:05;94798.47;;;17.85;nan
7480;BME280;3781;42.272;22.658;2022-09-09T05:39:33;94825.91;;;18.05;nan
7480;BME280;3781;42.272;22.658;2022-09-09T05:42:01;94835.50;;;18.21;nan
7480;BME280;3781;42.272;22.658;2022-09-09T05:44:30;94842.66;;;18.35;nan
7480;BME280;3781;42.272;22.658;2022-09-09T05:46:57;94801.84;;;18.39;nan
7480;BME280;3781;42.272;22.658;2022-09-09T05:49:24;94818.22;;;18.72;nan
7480;BME280;3781;42.272;22.658;2022-09-09T05:51:52;94809.06;;;18.68;nan
7480;BME280;3781;42.272;22.658;2022-09-09T05:54:19;94807.91;;;18.85;nan
7480;BME280;3781;42.272;22.658;2022-09-09T05:56:46;94837.69;;;19.00;nan
7480;BME280;3781;42.272;22.658;2022-09-09T05:59:16;94843.34;;;19.55;nan
7480;BME280;3781;42.272;22.658;2022-09-09T06:01:43;94856.16;;;19.73;nan
7480;BME280;3781;42.272;22.658;2022-09-09T06:04:10;94855.53;;;19.57;nan
7480;BME280;3781;42.272;22.658;2022-09-09T06:06:38;94852.63;;;19.81;nan
7480;BME280;3781;42.272;22.658;2022-09-09T06:09:07;94863.59;;;19.84;nan
7480;BME280;3781;42.272;22.658;2022-09-09T06:11:36;94846.09;;;19.77;nan
7480;BME280;3781;42.272;22.658;2022-09-09T06:14:04;94841.16;;;19.74;nan
7480;BME280;3781;42.272;22.658;2022-09-09T06:16:31;94800.16;;;19.35;nan
7480;BME280;3781;42.272;22.658;2022-09-09T06:18:59;94820.44;;;19.71;nan
7480;BME280;3781;42.272;22.658;2022-09-09T06:21:27;94828.81;;;20.24;nan
7480;BME280;3781;42.272;22.658;2022-09-09T06:23:55;94838.41;;;20.53;nan
7480;BME280;3781;42.272;22.658;2022-09-09T06:26:25;94830.25;;;20.97;nan
7480;BME280;3781;42.272;22.658;2022-09-09T06:28:53;94820.19;;;21.75;nan
7480;BME280;3781;42.272;22.658;2022-09-09T06:31:22;94811.44;;;22.16;nan
7480;BME280;3781;42.272;22.658;2022-09-09T06:33:50;94838.03;;;22.81;nan
7480;BME280;3781;42.272;22.658;2022-09-09T06:36:19;94845.53;;;23.30;nan
7480;BME280;3781;42.272;22.658;2022-09-09T06:38:46;94830.91;;;24.05;nan
7480;BME280;3781;42.272;22.658;2022-09-09T06:41:14;94845.50;;;24.96;nan
7480;BME280;3781;42.272;22.658;2022-09-09T06:43:43;94860.69;;;25.45;nan
7480;BME280;3781;42.272;22.658;2022-09-09T06:46:12;94844.75;;;25.81;nan
7480;BME280;3781;42.272;22.658;2022-09-09T06:48:39;94821.38;;;24.97;nan
7480;BME280;3781;42.272;22.658;2022-09-09T06:51:09;94841.88;;;24.15;nan
7480;BME280;3781;42.272;22.658;2022-09-09T06:53:37;94813.81;;;23.87;nan
7480;BME280;3781;42.272;22.658;2022-09-09T06:56:19;94839.19;;;23.70;nan
7480;BME280;3781;42.272;22.658;2022-09-09T06:58:50;94829.41;;;23.58;nan
7480;BME280;3781;42.272;22.658;2022-09-09T07:01:20;94810.63;;;23.66;nan
7480;BME280;3781;42.272;22.658;2022-09-09T07:03:51;94752.25;;;22.82;nan
7480;BME280;3781;42.272;22.658;2022-09-09T07:06:19;94729.22;;;22.50;nan
7480;BME280;3781;42.272;22.658;2022-09-09T07:08:51;94819.25;;;23.48;nan
7480;BME280;3781;42.272;22.658;2022-09-09T07:11:19;94745.91;;;23.09;nan
7480;BME280;3781;42.272;22.658;2022-09-09T07:13:46;94737.38;;;22.94;nan
7480;BME280;3781;42.272;22.658;2022-09-09T07:16:17;94793.63;;;22.77;nan
7480;BME280;3781;42.272;22.658;2022-09-09T07:18:44;94820.50;;;22.74;nan
7480;BME280;3781;42.272;22.658;2022-09-09T07:21:12;94754.66;;;22.31;nan
7480;BME280;3781;42.272;22.658;2022-09-09T07:23:40;94790.34;;;22.75;nan
7480;BME280;3781;42.272;22.658;2022-09-09T07:26:09;94843.66;;;23.76;nan
7480;BME280;3781;42.272;22.658;2022-09-09T07:28:37;94801.41;;;24.26;nan
7480;BME280;3781;42.272;22.658;2022-09-09T07:31:04;94830.53;;;24.70;nan
7480;BME280;3781;42.272;22.658;2022-09-09T07:33:34;94819.25;;;25.55;nan
7480;BME280;3781;42.272;22.658;2022-09-09T07:36:04;94794.13;;;26.35;nan
7480;BME280;3781;42.272;22.658;2022-09-09T07:38:31;94719.41;;;26.19;nan
7480;BME280;3781;42.272;22.658;2022-09-09T07:41:03;94867.50;;;27.20;nan
7480;BME280;3781;42.272;22.658;2022-09-09T07:43:31;94788.63;;;27.13;nan
7480;BME280;3781;42.272;22.658;2022-09-09T07:45:59;94760.66;;;26.80;nan
7480;BME280;3781;42.272;22.658;2022-09-09T07:48:26;94819.03;;;28.32;nan
7480;BME280;3781;42.272;22.658;2022-09-09T07:51:05;94856.16;;;29.02;nan
7480;BME280;3781;42.272;22.658;2022-09-09T07:53:33;94899.34;;;29.89;nan
7480;BME280;3781;42.272;22.658;2022-09-09T07:56:05;94810.75;;;27.94;nan
7480;BME280;3781;42.272;22.658;2022-09-09T07:58:32;94888.75;;;28.19;nan
7480;BME280;3781;42.272;22.658;2022-09-09T08:00:59;94724.91;;;26.58;nan
7480;BME280;3781;42.272;22.658;2022-09-09T08:03:26;94813.19;;;25.41;nan
7480;BME280;3781;42.272;22.658;2022-09-09T08:05:53;94774.69;;;24.21;nan
7480;BME280;3781;42.272;22.658;2022-09-09T08:08:28;94837.66;;;24.01;nan
7480;BME280;3781;42.272;22.658;2022-09-09T08:11:02;94753.00;;;23.29;nan
7480;BME280;3781;42.272;22.658;2022-09-09T08:13:30;94778.84;;;23.59;nan
7480;BME280;3781;42.272;22.658;2022-09-09T08:16:04;94838.28;;;23.89;nan
7480;BME280;3781;42.272;22.658;2022-09-09T08:18:31;94828.53;;;24.28;nan
7480;BME280;3781;42.272;22.658;2022-09-09T08:21:04;94832.19;;;24.64;nan
7480;BME280;3781;42.272;22.658;2022-09-09T08:23:33;94824.78;;;24.73;nan
7480;BME280;3781;42.272;22.658;2022-09-09T08:26:09;94818.22;;;24.82;nan
7480;BME280;3781;42.272;22.658;2022-09-09T08:28:37;94740.06;;;24.65;nan
7480;BME280;3781;42.272;22.658;2022-09-09T08:31:06;94781.13;;;25.18;nan
7480;BME280;3781;42.272;22.658;2022-09-09T08:33:34;94795.22;;;25.62;nan
7480;BME280;3781;42.272;22.658;2022-09-09T08:36:04;94813.25;;;25.78;nan
7480;BME280;3781;42.272;22.658;2022-09-09T08:38:33;94784.78;;;25.96;nan
7480;BME280;3781;42.272;22.658;2022-09-09T08:41:12;94845.91;;;26.39;nan
7480;BME280;3781;42.272;22.658;2022-09-09T08:43:46;94854.00;;;25.96;nan
7480;BME280;3781;42.272;22.658;2022-09-09T08:46:18;94845.09;;;25.84;nan
7480;BME280;3781;42.272;22.658;2022-09-09T08:48:54;94758.50;;;25.70;nan
7480;BME280;3781;42.272;22.658;2022-09-09T08:51:26;94799.88;;;25.66;nan
7480;BME280;3781;42.272;22.658;2022-09-09T08:53:57;94797.66;;;25.81;nan
7480;BME280;3781;42.272;22.658;2022-09-09T08:56:27;94839.69;;;25.55;nan
7480;BME280;3781;42.272;22.658;2022-09-09T08:58:56;94795.56;;;25.04;nan
7480;BME280;3781;42.272;22.658;2022-09-09T09:01:32;94866.09;;;24.76;nan
7480;BME280;3781;42.272;22.658;2022-09-09T09:04:03;94860.28;;;24.03;nan
7480;BME280;3781;42.272;22.658;2022-09-09T09:06:42;94863.41;;;24.44;nan
7480;BME280;3781;42.272;22.658;2022-09-09T09:09:20;94840.66;;;24.55;nan
7480;BME280;3781;42.272;22.658;2022-09-09T09:11:51;94850.13;;;24.76;nan
7480;BME280;3781;42.272;22.658;2022-09-09T09:14:21;94844.84;;;24.76;nan
7480;BME280;3781;42.272;22.658;2022-09-09T09:16:52;94827.66;;;24.78;nan
7480;BME280;3781;42.272;22.658;2022-09-09T09:19:19;94817.03;;;24.71;nan
7480;BME280;3781;42.272;22.658;2022-09-09T09:21:52;94827.09;;;24.32;nan
7480;BME280;3781;42.272;22.658;2022-09-09T09:24:27;94838.28;;;24.78;nan
7480;BME280;3781;42.272;22.658;2022-09-09T09:26:59;94809.59;;;25.11;nan
7480;BME280;3781;42.272;22.658;2022-09-09T09:29:26;94812.25;;;25.11;nan
7480;BME280;3781;42.272;22.658;2022-09-09T09:31:55;94822.78;;;25.24;nan
7480;BME280;3781;42.272;22.658;2022-09-09T09:34:23;94804.53;;;25.53;nan
7480;BME280;3781;42.272;22.658;2022-09-09T09:36:54;94810.53;;;25.41;nan
7480;BME280;3781;42.272;22.658;2022-09-09T09:39:25;94825.56;;;25.29;nan
7480;BME280;3781;42.272;22.658;2022-09-09T09:41:52;94804.88;;;25.38;nan
7480;BME280;3781;42.272;22.658;2022-09-09T09:44:23;94816.50;;;25.80;nan
7480;BME280;3781;42.272;22.658;2022-09-09T09:46:50;94800.44;;;26.04;nan
7480;BME280;3781;42.272;22.658;2022-09-09T09:49:17;94791.38;;;26.12;nan
7480;BME280;3781;42.272;22.658;2022-09-09T09:51:44;94803.63;;;25.95;nan
7480;BME280;3781;42.272;22.658;2022-09-09T09:54:17;94830.53;;;26.05;nan
7480;BME280;3781;42.272;22.658;2022-09-09T09:56:47;94808.53;;;25.62;nan
7480;BME280;3781;42.272;22.658;2022-09-09T09:59:31;94834.84;;;25.88;nan
7480;BME280;3781;42.272;22.658;2022-09-09T10:02:12;94836.91;;;25.86;nan
7480;BME280;3781;42.272;22.658;2022-09-09T10:04:40;94851.09;;;25.12;nan
7480;BME280;3781;42.272;22.658;2022-09-09T10:07:10;94843.16;;;24.43;nan
7480;BME280;3781;42.272;22.658;2022-09-09T10:09:37;94846.19;;;24.47;nan
7480;BME280;3781;42.272;22.658;2022-09-09T10:12:14;94853.84;;;24.68;nan
7480;BME280;3781;42.272;22.658;2022-09-09T10:14:51;94827.06;;;24.38;nan
7480;BME280;3781;42.272;22.658;2022-09-09T10:17:27;94827.09;;;24.32;nan
7480;BME280;3781;42.272;22.658;2022-09-09T10:20:13;94818.25;;;24.76;nan
7480;BME280;3781;42.272;22.658;2022-09-09T10:22:47;94856.03;;;25.09;nan
7480;BME280;3781;42.272;22.658;2022-09-09T10:25:35;94846.31;;;24.96;nan
7480;BME280;3781;42.272;22.658;2022-09-09T10:28:29;94873.69;;;25.03;nan
7480;BME280;3781;42.272;22.658;2022-09-09T10:31:07;94869.19;;;24.66;nan
7480;BME280;3781;42.272;22.658;2022-09-09T10:33:44;94836.56;;;24.90;nan
7480;BME280;3781;42.272;22.658;2022-09-09T10:36:19;94868.22;;;24.92;nan
7480;BME280;3781;42.272;22.658;2022-09-09T10:38:47;94869.16;;;24.79;nan
7480;BME280;3781;42.272;22.658;2022-09-09T10:41:19;94837.56;;;24.58;nan
7480;BME280;3781;42.272;22.658;2022-09-09T10:44:06;94861.59;;;24.69;nan
7480;BME280;3781;42.272;22.658;2022-09-09T10:46:51;94870.13;;;24.85;nan
7480;BME280;3781;42.272;22.658;2022-09-09T10:49:27;94851.88;;;24.88;nan
7480;BME280;3781;42.272;22.658;2022-09-09T10:52:03;94859.94;;;24.75;nan
7480;BME280;3781;42.272;22.658;2022-09-09T10:54:42;94845.81;;;25.06;nan
7480;BME280;3781;42.272;22.658;2022-09-09T10:57:18;94840.28;;;25.32;nan
7480;BME280;3781;42.272;22.658;2022-09-09T10:59:55;94813.84;;;25.62;nan
7480;BME280;3781;42.272;22.658;2022-09-09T11:02:27;94827.00;;;26.11;nan
7480;BME280;3781;42.272;22.658;2022-09-09T11:04:57;94822.75;;;26.03;nan
7480;BME280;3781;42.272;22.658;2022-09-09T11:07:32;94813.56;;;25.88;nan
7480;BME280;3781;42.272;22.658;2022-09-09T11:10:06;94807.50;;;25.81;nan
7480;BME280;3781;42.272;22.658;2022-09-09T11:12:36;94794.03;;;25.76;nan
7480;BME280;3781;42.272;22.658;2022-09-09T11:15:08;94802.00;;;25.94;nan
7480;BME280;3781;42.272;22.658;2022-09-09T11:17:44;94786.34;;;25.68;nan
7480;BME280;3781;42.272;22.658;2022-09-09T11:20:15;94802.41;;;25.36;nan
7480;BME280;3781;42.272;22.658;2022-09-09T11:22:46;94778.84;;;24.97;nan
7480;BME280;3781;42.272;22.658;2022-09-09T11:25:17;94810.53;;;25.41;nan
7480;BME280;3781;42.272;22.658;2022-09-09T11:27:57;94795.13;;;25.50;nan
7480;BME280;3781;42.272;22.658;2022-09-09T11:30:38;94800.09;;;25.83;nan
7480;BME280;3781;42.272;22.658;2022-09-09T11:36:31;94807.28;;;27.13;nan
7480;BME280;3781;42.272;22.658;2022-09-09T11:39:09;94770.00;;;27.36;nan
7480;BME280;3781;42.272;22.658;2022-09-09T11:41:44;94805.69;;;27.81;nan
7480;BME280;3781;42.272;22.658;2022-09-09T11:44:13;94813.59;;;27.53;nan
7480;BME280;3781;42.272;22.658;2022-09-09T11:46:46;94817.91;;;27.42;nan
7480;BME280;3781;42.272;22.658;2022-09-09T11:49:27;94798.03;;;27.27;nan
7480;BME280;3781;42.272;22.658;2022-09-09T11:51:54;94784.34;;;27.12;nan
7480;BME280;3781;42.272;22.658;2022-09-09T11:54:29;94797.78;;;27.17;nan
7480;BME280;3781;42.272;22.658;2022-09-09T11:56:56;94793.22;;;26.82;nan
7480;BME280;3781;42.272;22.658;2022-09-09T11:59:25;94803.13;;;26.64;nan
7480;BME280;3781;42.272;22.658;2022-09-09T12:01:57;94802.09;;;25.69;nan
7480;BME280;3781;42.272;22.658;2022-09-09T12:04:32;94812.22;;;25.61;nan
7480;BME280;3781;42.272;22.658;2022-09-09T12:07:01;94812.25;;;25.11;nan
7480;BME280;3781;42.272;22.658;2022-09-09T12:09:33;94815.88;;;24.30;nan
7480;BME280;3781;42.272;22.658;2022-09-09T12:12:07;94789.25;;;24.12;nan
7480;BME280;3781;42.272;22.658;2022-09-09T12:14:37;94800.19;;;24.22;nan
7480;BME280;3781;42.272;22.658;2022-09-09T12:17:27;94802.50;;;24.12;nan
7480;BME280;3781;42.272;22.658;2022-09-09T12:20:03;94798.63;;;24.08;nan
7480;BME280;3781;42.272;22.658;2022-09-09T12:22:40;94776.72;;;23.81;nan
7480;BME280;3781;42.272;22.658;2022-09-09T12:25:16;94795.38;;;24.06;nan
7480;BME280;3781;42.272;22.658;2022-09-09T12:27:55;94773.97;;;24.07;nan
7480;BME280;3781;42.272;22.658;2022-09-09T12:30:29;94788.31;;;24.31;nan
7480;BME280;3781;42.272;22.658;2022-09-09T12:33:10;94778.56;;;24.25;nan
7480;BME280;3781;42.272;22.658;2022-09-09T12:35:38;94782.63;;;24.21;nan
7480;BME280;3781;42.272;22.658;2022-09-09T12:38:11;94770.06;;;24.10;nan
7480;BME280;3781;42.272;22.658;2022-09-09T12:40:40;94741.75;;;23.46;nan
7480;BME280;3781;42.272;22.658;2022-09-09T12:43:18;94768.66;;;23.43;nan
7480;BME280;3781;42.272;22.658;2022-09-09T12:45:46;94764.63;;;23.21;nan
7480;BME280;3781;42.272;22.658;2022-09-09T12:48:18;94758.13;;;23.04;nan
7480;BME280;3781;42.272;22.658;2022-09-09T12:50:48;94758.56;;;23.01;nan
7480;BME280;3781;42.272;22.658;2022-09-09T12:53:22;94730.47;;;22.61;nan
7480;BME280;3781;42.272;22.658;2022-09-09T12:55:52;94744.75;;;22.60;nan
7480;BME280;3781;42.272;22.658;2022-09-09T12:58:21;94722.09;;;22.24;nan
7480;BME280;3781;42.272;22.658;2022-09-09T13:00:52;94740.19;;;22.40;nan
7480;BME280;3781;42.272;22.658;2022-09-09T13:03:23;94706.00;;;22.13;nan
7480;BME280;3781;42.272;22.658;2022-09-09T13:05:51;94716.38;;;22.34;nan
7480;BME280;3781;42.272;22.658;2022-09-09T13:08:19;94719.84;;;22.41;nan
7480;BME280;3781;42.272;22.658;2022-09-09T13:10:49;94687.25;;;22.14;nan
7480;BME280;3781;42.272;22.658;2022-09-09T13:13:22;94660.00;;;21.88;nan
7480;BME280;3781;42.272;22.658;2022-09-09T13:15:52;94668.94;;;21.87;nan
7480;BME280;3781;42.272;22.658;2022-09-09T13:18:24;94667.25;;;21.66;nan
7480;BME280;3781;42.272;22.658;2022-09-09T13:20:53;94658.69;;;21.77;nan
7480;BME280;3781;42.272;22.658;2022-09-09T13:23:21;94645.69;;;21.75;nan
7480;BME280;3781;42.272;22.658;2022-09-09T13:25:56;94620.94;;;21.96;nan
7480;BME280;3781;42.272;22.658;2022-09-09T13:28:25;94643.81;;;23.51;nan
7480;BME280;3781;42.272;22.658;2022-09-09T13:30:59;94645.19;;;25.63;nan
7480;BME280;3781;42.272;22.658;2022-09-09T13:33:32;94596.72;;;27.29;nan
7480;BME280;3781;42.272;22.658;2022-09-09T13:36:01;94648.72;;;29.93;nan
7480;BME280;3781;42.272;22.658;2022-09-09T13:38:32;94640.03;;;32.77;nan
7480;BME280;3781;42.272;22.658;2022-09-09T13:41:01;94584.94;;;34.07;nan
7480;BME280;3781;42.272;22.658;2022-09-09T13:43:31;94663.00;;;33.68;nan
7480;BME280;3781;42.272;22.658;2022-09-09T13:46:00;94667.34;;;34.67;nan
7480;BME280;3781;42.272;22.658;2022-09-09T13:48:27;94651.72;;;36.16;nan
7480;BME280;3781;42.272;22.658;2022-09-09T13:51:01;94668.16;;;38.71;nan
7480;BME280;3781;42.272;22.658;2022-09-09T13:53:30;94673.31;;;39.86;nan
7480;BME280;3781;42.272;22.658;2022-09-09T13:55:58;94687.50;;;40.06;nan